Time,TemperatureF,DewpointF,PressureIn,WindDirection,WindDirectionDegrees,WindSpeedMPH,WindSpeedGustMPH,Humidity,HourlyPrecipIn,Conditions,Clouds,dailyrainin,SoftwareType,DateUTC
2015-05-28 00:03:00,54.7,45.9,29.94,WSW,248,0.0,0.2,72,0.00,,,0.00,WUHU216HW,2015-05-28 06:03:00,
2015-05-28 00:08:00,54.5,46.1,29.94,WSW,248,0.9,0.9,73,0.00,,,0.00,WUHU216HW,2015-05-28 06:08:00,
2015-05-28 00:13:00,54.4,45.9,29.94,SW,225,1.1,1.1,73,0.00,,,0.00,WUHU216HW,2015-05-28 06:13:00,
2015-05-28 00:18:00,54.4,45.9,29.94,SW,225,0.2,1.1,73,0.00,,,0.00,WUHU216HW,2015-05-28 06:18:00,
2015-05-28 00:23:00,54.4,45.9,29.94,SW,225,0.0,0.7,73,0.00,,,0.00,WUHU216HW,2015-05-28 06:23:00,
2015-05-28 00:28:00,54.4,45.9,29.94,SW,225,0.0,1.1,73,0.00,,,0.00,WUHU216HW,2015-05-28 06:28:00,
2015-05-28 00:33:00,54.2,46.1,29.94,SW,225,0.0,1.1,74,0.00,,,0.00,WUHU216HW,2015-05-28 06:33:00,
2015-05-28 00:38:00,54.0,45.9,29.94,SW,225,0.0,0.0,74,0.00,,,0.00,WUHU216HW,2015-05-28 06:38:00,
2015-05-28 00:43:00,53.8,45.7,29.94,SW,225,0.0,0.0,74,0.00,,,0.00,WUHU216HW,2015-05-28 06:43:00,
2015-05-28 00:48:00,53.6,45.5,29.94,SW,225,0.7,0.7,74,0.00,,,0.00,WUHU216HW,2015-05-28 06:48:00,
2015-05-28 00:53:00,53.5,45.4,29.95,SW,225,0.0,0.7,74,0.00,,,0.00,WUHU216HW,2015-05-28 06:53:00,
2015-05-28 00:58:00,53.3,44.8,29.95,SW,225,0.0,0.0,73,0.00,,,0.00,WUHU216HW,2015-05-28 06:58:00,
2015-05-28 01:03:00,53.1,45.0,29.94,SW,225,0.0,0.0,74,0.00,,,0.00,WUHU216HW,2015-05-28 07:03:00,
2015-05-28 01:08:00,52.9,44.8,29.94,SW,225,0.0,0.0,74,0.00,,,0.00,WUHU216HW,2015-05-28 07:08:00,
2015-05-28 01:13:00,52.9,44.8,29.95,SW,225,0.0,0.0,74,0.00,,,0.00,WUHU216HW,2015-05-28 07:13:00,
2015-05-28 01:18:00,52.7,44.7,29.94,SW,225,0.0,0.0,74,0.00,,,0.00,WUHU216HW,2015-05-28 07:18:00,
2015-05-28 01:23:00,52.6,44.9,29.94,SW,225,0.0,0.0,75,0.00,,,0.00,WUHU216HW,2015-05-28 07:23:00,
2015-05-28 01:28:00,52.4,44.7,29.94,WNW,293,0.9,0.9,75,0.00,,,0.00,WUHU216HW,2015-05-28 07:28:00,
2015-05-28 01:33:00,52.2,44.6,29.94,NW,315,0.0,0.9,75,0.00,,,0.00,WUHU216HW,2015-05-28 07:33:00,
2015-05-28 01:38:00,52.2,44.6,29.94,NW,315,0.0,0.7,75,0.00,,,0.00,WUHU216HW,2015-05-28 07:38:00,
2015-05-28 01:43:00,52.0,44.4,29.94,NW,315,0.0,0.0,75,0.00,,,0.00,WUHU216HW,2015-05-28 07:43:00,
2015-05-28 01:48:00,51.8,44.2,29.93,NW,315,0.0,0.0,75,0.00,,,0.00,WUHU216HW,2015-05-28 07:48:00,
2015-05-28 01:53:00,51.8,44.2,29.93,SW,225,0.2,1.1,75,0.00,,,0.00,WUHU216HW,2015-05-28 07:53:00,
2015-05-28 01:58:00,51.7,44.4,29.93,West,270,0.0,1.1,76,0.00,,,0.00,WUHU216HW,2015-05-28 07:58:00,
2015-05-28 02:03:00,51.7,44.4,29.93,West,270,0.0,0.4,76,0.00,,,0.00,WUHU216HW,2015-05-28 08:03:00,
2015-05-28 02:08:00,51.7,44.4,29.93,West,270,0.0,0.0,76,0.00,,,0.00,WUHU216HW,2015-05-28 08:08:00,
2015-05-28 02:13:00,51.5,44.2,29.93,West,270,1.1,1.1,76,0.00,,,0.00,WUHU216HW,2015-05-28 08:13:00,
2015-05-28 02:18:00,51.5,44.2,29.93,WSW,248,0.0,1.1,76,0.00,,,0.00,WUHU216HW,2015-05-28 08:18:00,
2015-05-28 02:23:00,51.5,44.6,29.93,WSW,248,0.9,1.6,77,0.00,,,0.00,WUHU216HW,2015-05-28 08:23:00,
2015-05-28 02:28:00,51.5,44.6,29.93,West,270,1.6,2.5,77,0.00,,,0.00,WUHU216HW,2015-05-28 08:28:00,
2015-05-28 02:33:00,51.7,44.7,29.93,WSW,248,0.2,2.5,77,0.00,,,0.00,WUHU216HW,2015-05-28 08:33:00,
2015-05-28 02:38:00,51.8,44.9,29.93,WSW,248,1.3,2.0,77,0.00,,,0.00,WUHU216HW,2015-05-28 08:38:00,
2015-05-28 02:43:00,52.0,45.1,29.94,WSW,248,0.0,2.0,77,0.00,,,0.00,WUHU216HW,2015-05-28 08:43:00,
2015-05-28 02:48:00,52.2,45.2,29.94,SW,225,1.1,2.0,77,0.00,,,0.00,WUHU216HW,2015-05-28 08:48:00,
2015-05-28 02:53:00,52.2,45.2,29.94,SW,225,2.5,3.4,77,0.00,,,0.00,WUHU216HW,2015-05-28 08:53:00,
2015-05-28 02:58:00,52.2,45.2,29.93,West,270,6.5,6.5,77,0.00,,,0.00,WUHU216HW,2015-05-28 08:58:00,
2015-05-28 03:03:00,52.2,45.5,29.94,WSW,248,2.0,6.5,78,0.00,,,0.00,WUHU216HW,2015-05-28 09:03:00,
2015-05-28 03:08:00,52.6,45.9,29.93,SSW,203,1.3,3.6,78,0.00,,,0.00,WUHU216HW,2015-05-28 09:08:00,
2015-05-28 03:18:00,52.7,45.7,29.93,West,270,1.3,2.5,77,0.00,,,0.00,WUHU216HW,2015-05-28 09:18:00,
2015-05-28 03:23:00,52.7,45.7,29.93,SW,225,0.4,1.3,77,0.00,,,0.00,WUHU216HW,2015-05-28 09:23:00,
2015-05-28 03:28:00,52.9,45.9,29.94,SW,225,0.0,1.1,77,0.00,,,0.00,WUHU216HW,2015-05-28 09:28:00,
2015-05-28 03:33:00,52.7,45.4,29.94,SW,225,0.0,0.4,76,0.00,,,0.00,WUHU216HW,2015-05-28 09:33:00,
2015-05-28 03:38:00,52.6,45.2,29.93,SW,225,0.0,0.0,76,0.00,,,0.00,WUHU216HW,2015-05-28 09:38:00,
2015-05-28 03:43:00,52.4,45.1,29.94,SW,225,0.0,0.0,76,0.00,,,0.00,WUHU216HW,2015-05-28 09:43:00,
2015-05-28 03:48:00,52.2,45.2,29.93,SW,225,0.0,0.0,77,0.00,,,0.00,WUHU216HW,2015-05-28 09:48:00,
2015-05-28 03:53:00,52.0,45.1,29.93,SW,225,0.0,0.0,77,0.00,,,0.00,WUHU216HW,2015-05-28 09:53:00,
2015-05-28 03:58:00,51.8,44.9,29.93,SW,225,0.0,0.0,77,0.00,,,0.00,WUHU216HW,2015-05-28 09:58:00,
2015-05-28 04:03:00,51.5,44.6,29.93,SW,225,0.0,0.0,77,0.00,,,0.00,WUHU216HW,2015-05-28 10:03:00,
2015-05-28 04:08:00,51.5,44.6,29.93,SW,225,0.0,0.0,77,0.00,,,0.00,WUHU216HW,2015-05-28 10:08:00,
2015-05-28 04:13:00,51.5,44.6,29.94,SW,225,0.0,0.0,77,0.00,,,0.00,WUHU216HW,2015-05-28 10:13:00,
2015-05-28 04:18:00,51.1,44.2,29.93,SW,225,0.0,0.0,77,0.00,,,0.00,WUHU216HW,2015-05-28 10:18:00,
2015-05-28 04:23:00,51.1,44.5,29.93,SW,225,0.7,0.7,78,0.00,,,0.00,WUHU216HW,2015-05-28 10:23:00,
2015-05-28 04:28:00,50.9,44.3,29.93,SW,225,1.6,1.6,78,0.00,,,0.00,WUHU216HW,2015-05-28 10:28:00,
2015-05-28 04:33:00,50.9,44.3,29.94,SW,225,2.5,3.4,78,0.00,,,0.00,WUHU216HW,2015-05-28 10:33:00,
2015-05-28 04:38:00,50.8,44.1,29.94,SSW,203,2.5,3.8,78,0.00,,,0.00,WUHU216HW,2015-05-28 10:38:00,
2015-05-28 04:43:00,50.8,44.1,29.94,SSW,203,4.3,4.3,78,0.00,,,0.00,WUHU216HW,2015-05-28 10:43:00,
2015-05-28 04:48:00,50.8,44.5,29.94,South,180,2.2,4.3,79,0.00,,,0.00,WUHU216HW,2015-05-28 10:48:00,
2015-05-28 04:53:00,50.9,44.6,29.94,SSW,203,4.5,4.5,79,0.00,,,0.00,WUHU216HW,2015-05-28 10:53:00,
2015-05-28 04:58:00,50.9,44.6,29.95,SW,225,4.3,4.9,79,0.00,,,0.00,WUHU216HW,2015-05-28 10:58:00,
2015-05-28 05:03:00,51.1,44.8,29.95,SSW,203,4.5,4.9,79,0.00,,,0.00,WUHU216HW,2015-05-28 11:03:00,
2015-05-28 05:08:00,51.1,44.8,29.95,SSW,203,3.1,4.7,79,0.00,,,0.00,WUHU216HW,2015-05-28 11:08:00,
2015-05-28 05:13:00,51.1,44.8,29.95,South,180,2.2,5.6,79,0.00,,,0.00,WUHU216HW,2015-05-28 11:13:00,
2015-05-28 05:18:00,51.1,44.8,29.95,SSW,203,1.1,5.6,79,0.00,,,0.00,WUHU216HW,2015-05-28 11:18:00,
2015-05-28 05:23:00,51.1,44.8,29.95,SW,225,1.3,2.5,79,0.00,,,0.00,WUHU216HW,2015-05-28 11:23:00,
2015-05-28 05:28:00,51.1,44.8,29.95,SW,225,1.1,2.9,79,0.00,,,0.00,WUHU216HW,2015-05-28 11:28:00,